Time;durP1;ratioP1;P1;durP2;ratioP2;P2;SDS_P1;SDS_P2;PMS_P1;PMS_P2;Temp;Humidity;BMP_temperature;BMP_pressure;BME280_temperature;BME280_humidity;BME280_pressure;Samples;Min_cycle;Max_cycle;Signal;HPM_P1;HPM_P2
2021/12/03 00:00:28;;;;;;;12.35;7.90;;;;;;;-0.63;96.69;101003.25;5020852;28;20508;-71
2021/12/03 00:02:54;;;;;;;12.88;8.00;;;;;;;-0.63;96.54;101011.25;5020188;28;20033;-71
2021/12/03 00:05:20;;;;;;;15.50;8.32;;;;;;;-0.64;96.24;101008.63;5025438;28;20051;-70
2021/12/03 00:07:46;;;;;;;17.42;8.52;;;;;;;-0.64;96.53;101005.97;5028095;28;20380;-68
2021/12/03 00:10:15;;;;;;;16.63;9.68;;;;;;;-0.67;96.58;100998.91;5023708;28;20478;-71
2021/12/03 00:12:42;;;;;;;19.58;9.82;;;;;;;-0.67;96.39;101009.56;5006963;28;20401;-67
2021/12/03 00:15:10;;;;;;;19.25;10.38;;;;;;;-0.67;96.43;101006.91;5008541;28;20054;-72
2021/12/03 00:17:36;;;;;;;22.05;9.45;;;;;;;-0.70;96.47;100996.31;5026273;28;20057;-71
2021/12/03 00:20:05;;;;;;;17.75;9.55;;;;;;;-0.72;96.57;101000.78;5011865;28;20021;-67
2021/12/03 00:22:31;;;;;;;28.23;11.32;;;;;;;-0.72;96.38;101007.94;5019351;28;20036;-66
2021/12/03 00:24:56;;;;;;;24.42;9.93;;;;;;;-0.74;96.31;101007.09;5021074;28;20041;-71
2021/12/03 00:27:21;;;;;;;19.55;9.50;;;;;;;-0.73;96.54;101014.19;5015325;28;20041;-71
2021/12/03 00:29:47;;;;;;;23.50;10.45;;;;;;;-0.77;96.90;101006.25;5024652;28;20030;-66
2021/12/03 00:32:12;;;;;;;17.23;10.45;;;;;;;-0.77;96.60;101008.03;5018182;28;20029;-66
2021/12/03 00:34:38;;;;;;;27.42;11.27;;;;;;;-0.79;96.37;101007.22;5015193;28;20475;-72
2021/12/03 00:37:03;;;;;;;24.15;10.75;;;;;;;-0.78;97.01;101009.84;5011936;28;20042;-71
2021/12/03 00:39:29;;;;;;;17.13;11.02;;;;;;;-0.78;96.73;101012.50;5011715;28;20519;-66
2021/12/03 00:42:00;;;;;;;22.40;11.40;;;;;;;-0.79;96.67;101013.44;5016325;28;20040;-65
2021/12/03 00:44:26;;;;;;;31.02;11.50;;;;;;;-0.79;96.90;101004.53;5011293;28;20029;-72
2021/12/03 00:46:52;;;;;;;30.67;11.43;;;;;;;-0.80;96.71;101011.66;5027516;28;20018;-67
2021/12/03 00:49:18;;;;;;;23.60;11.25;;;;;;;-0.81;96.63;101011.69;5028300;28;20024;-67
2021/12/03 00:51:43;;;;;;;22.00;10.77;;;;;;;-0.80;96.48;101021.47;5025942;28;20512;-71
2021/12/03 00:54:09;;;;;;;22.25;11.50;;;;;;;-0.82;96.70;101017.97;5027458;28;20022;-66
2021/12/03 00:56:34;;;;;;;24.67;10.95;;;;;;;-0.83;96.56;101011.75;5025580;28;20057;-72
2021/12/03 00:58:59;;;;;;;21.88;11.85;;;;;;;-0.84;96.85;101019.75;5025618;28;20034;-71
2021/12/03 01:01:25;;;;;;;24.13;11.57;;;;;;;-0.86;96.69;101021.59;5025173;28;20025;-67
2021/12/03 01:03:50;;;;;;;19.88;11.55;;;;;;;-0.86;96.42;101022.47;5014718;28;20034;-72
2021/12/03 01:06:16;;;;;;;22.23;11.80;;;;;;;-0.88;96.78;101023.44;5021989;28;20041;-71
2021/12/03 01:08:41;;;;;;;30.33;13.93;;;;;;;-0.88;96.69;101024.31;5024780;28;20044;-66
2021/12/03 01:11:08;;;;;;;21.70;11.90;;;;;;;-0.91;96.70;101024.38;5013006;28;20034;-72
2021/12/03 01:13:35;;;;;;;23.55;11.65;;;;;;;-0.91;96.81;101029.72;5016349;28;20388;-73
2021/12/03 01:16:01;;;;;;;27.48;13.02;;;;;;;-0.92;96.85;101027.09;5013522;28;20057;-67
2021/12/03 01:18:27;;;;;;;20.52;12.00;;;;;;;-0.94;96.76;101031.56;5025581;28;20473;-65
2021/12/03 01:20:53;;;;;;;25.10;13.30;;;;;;;-0.96;96.56;101030.75;5022460;28;20084;-71
2021/12/03 01:23:18;;;;;;;22.77;12.70;;;;;;;-0.98;96.87;101040.56;5021433;28;20033;-70
2021/12/03 01:25:44;;;;;;;32.03;14.80;;;;;;;-0.93;96.82;101042.25;5028811;28;20128;-74
2021/12/03 01:28:09;;;;;;;34.05;15.73;;;;;;;-0.91;96.64;101042.19;5028341;28;20021;-65
2021/12/03 01:30:35;;;;;;;37.65;15.10;;;;;;;-0.91;97.08;101036.84;5028612;28;20025;-72
2021/12/03 01:33:05;;;;;;;29.08;14.50;;;;;;;-0.89;97.39;101038.56;5018638;28;20067;-67
2021/12/03 01:35:30;;;;;;;30.73;15.68;;;;;;;-0.88;97.58;101040.34;5026708;28;20040;-67
2021/12/03 01:37:56;;;;;;;29.27;16.38;;;;;;;-0.87;97.39;101038.56;5026834;28;20041;-72
2021/12/03 01:40:24;;;;;;;34.25;16.13;;;;;;;-0.86;97.37;101038.50;5016166;28;20431;-70
2021/12/03 01:42:50;;;;;;;37.78;16.00;;;;;;;-0.86;97.21;101038.50;5029034;28;20033;-73
2021/12/03 01:45:20;;;;;;;32.55;14.70;;;;;;;-0.85;97.25;101036.72;5029025;28;20029;-65
2021/12/03 01:47:47;;;;;;;37.70;18.73;;;;;;;-0.83;97.45;101034.91;5020561;28;20533;-67
2021/12/03 01:50:13;;;;;;;28.60;16.92;;;;;;;-0.84;97.38;101018.00;5028186;28;20024;-67
2021/12/03 01:52:39;;;;;;;33.60;14.73;;;;;;;-0.85;97.17;101013.53;5027361;28;20481;-72
2021/12/03 01:55:08;;;;;;;27.30;15.90;;;;;;;-0.83;97.52;101021.53;5030476;28;20044;-66
2021/12/03 01:57:33;;;;;;;30.13;16.33;;;;;;;-0.87;97.40;101009.19;5029626;28;20091;-72
2021/12/03 01:59:59;;;;;;;33.15;15.90;;;;;;;-0.82;97.31;101024.16;5021573;28;20038;-73
2021/12/03 02:02:26;;;;;;;32.92;16.75;;;;;;;-0.81;97.35;101020.59;5028772;28;20053;-72
2021/12/03 02:04:52;;;;;;;37.90;16.98;;;;;;;-0.77;97.32;101016.06;5023876;28;20082;-67
2021/12/03 02:07:17;;;;;;;32.03;16.83;;;;;;;-0.76;97.42;101020.47;5030400;28;20021;-74
2021/12/03 02:09:42;;;;;;;38.08;17.27;;;;;;;-0.73;97.45;101016.88;5026189;28;20033;-71
2021/12/03 02:12:08;;;;;;;46.92;19.50;;;;;;;-0.68;97.43;101022.97;5026682;28;20469;-67
2021/12/03 02:14:33;;;;;;;51.15;21.60;;;;;;;-0.64;97.47;101025.53;5020434;28;20037;-66
2021/12/03 02:16:59;;;;;;;49.40;21.83;;;;;;;-0.62;97.69;101028.16;5023595;28;20025;-71
2021/12/03 02:19:24;;;;;;;62.67;22.17;;;;;;;-0.60;97.42;101037.03;5014908;28;20065;-72
2021/12/03 02:21:49;;;;;;;54.20;22.15;;;;;;;-0.57;97.43;101044.97;5022767;28;20485;-68
2021/12/03 02:24:15;;;;;;;64.88;25.08;;;;;;;-0.54;97.56;101028.88;5023263;28;20781;-67
2021/12/03 02:26:42;;;;;;;63.55;25.80;;;;;;;-0.51;97.78;101034.16;5016023;28;20154;-72
2021/12/03 02:29:07;;;;;;;68.10;24.52;;;;;;;-0.50;97.91;101022.53;5026627;28;20124;-73
2021/12/03 02:31:33;;;;;;;74.63;25.88;;;;;;;-0.49;97.60;101016.28;5020141;28;20464;-72
2021/12/03 02:33:58;;;;;;;72.45;26.58;;;;;;;-0.47;98.05;101014.44;5010873;28;20033;-67
2021/12/03 02:36:24;;;;;;;83.85;26.20;;;;;;;-0.44;97.91;101011.69;5016503;28;20032;-66
2021/12/03 02:38:49;;;;;;;82.30;27.00;;;;;;;-0.44;97.96;101017.03;5017106;28;20054;-67
2021/12/03 02:41:16;;;;;;;85.60;26.42;;;;;;;-0.40;97.34;101012.50;5026278;28;20025;-67
2021/12/03 02:43:41;;;;;;;81.25;26.98;;;;;;;-0.38;97.85;101016.88;5030292;28;20029;-66
2021/12/03 02:46:06;;;;;;;91.85;29.55;;;;;;;-0.34;98.05;101012.34;5020669;28;20076;-72
2021/12/03 02:48:34;;;;;;;82.53;27.73;;;;;;;-0.33;98.15;101006.97;5029146;28;20351;-72
2021/12/03 02:51:00;;;;;;;91.78;30.30;;;;;;;-0.32;97.94;101011.41;5023122;28;20072;-73
2021/12/03 02:53:25;;;;;;;85.65;28.50;;;;;;;-0.29;98.08;101013.09;5024614;28;20029;-67
2021/12/03 02:55:51;;;;;;;84.60;26.83;;;;;;;-0.28;97.95;101017.53;5025653;28;20112;-69
2021/12/03 02:58:18;;;;;;;80.57;28.02;;;;;;;-0.24;97.86;101021.88;5024149;28;20083;-71
2021/12/03 03:00:45;;;;;;;85.07;29.20;;;;;;;-0.20;97.99;101014.66;5018886;28;20060;-68
2021/12/03 03:03:10;;;;;;;73.75;27.00;;;;;;;-0.20;97.89;101001.31;5036783;28;20022;-73
2021/12/03 03:05:36;;;;;;;76.60;28.60;;;;;;;-0.18;97.92;101002.16;5020760;28;20026;-73
2021/12/03 03:08:02;;;;;;;83.00;25.83;;;;;;;-0.16;97.91;101003.00;5027032;28;20028;-71
2021/12/03 03:10:31;;;;;;;72.85;26.60;;;;;;;-0.18;97.92;101000.38;5043939;28;20419;-74
2021/12/03 03:12:58;;;;;;;69.00;26.73;;;;;;;-0.13;97.62;101001.13;5028548;28;20032;-70
2021/12/03 03:15:24;;;;;;;73.75;26.58;;;;;;;-0.14;97.69;100994.03;5025211;28;20061;-73
2021/12/03 03:17:50;;;;;;;70.82;25.75;;;;;;;-0.11;97.73;100995.72;5028359;28;20392;-68
2021/12/03 03:20:16;;;;;;;71.28;26.02;;;;;;;-0.09;97.63;100993.91;5028049;28;20030;-68
2021/12/03 03:22:42;;;;;;;68.32;25.17;;;;;;;-0.08;97.67;100985.84;5016635;28;20040;-68
2021/12/03 03:25:13;;;;;;;54.67;23.92;;;;;;;-0.08;97.66;100991.19;5028401;28;20017;-67
2021/12/03 03:27:41;;;;;;;71.60;22.85;;;;;;;-0.06;97.80;101000.03;5010939;28;20124;-74
2021/12/03 03:30:09;;;;;;;66.63;24.75;;;;;;;-0.07;97.59;100989.38;5021751;28;20080;-68
2021/12/03 03:32:35;;;;;;;69.57;24.67;;;;;;;-0.05;97.66;100993.78;5021221;28;20474;-70
2021/12/03 03:35:00;;;;;;;80.90;27.80;;;;;;;-0.04;97.73;100998.22;5043320;28;20026;-68
2021/12/03 03:37:26;;;;;;;67.93;22.88;;;;;;;-0.03;97.50;100996.41;5027268;28;20075;-74
2021/12/03 03:39:51;;;;;;;75.88;26.00;;;;;;;-0.02;97.51;101001.69;5026415;28;20531;-67
2021/12/03 03:42:17;;;;;;;66.45;25.55;;;;;;;-0.01;97.78;100995.44;5026692;28;20044;-67
2021/12/03 03:44:43;;;;;;;66.97;25.38;;;;;;;0.00;97.54;101001.69;5026361;28;20104;-67
2021/12/03 03:47:09;;;;;;;76.68;24.52;;;;;;;0.02;97.66;101002.50;5026365;28;20052;-68
2021/12/03 03:49:35;;;;;;;74.75;25.90;;;;;;;0.02;97.68;101005.19;5020790;28;20029;-68
2021/12/03 03:52:01;;;;;;;68.75;26.25;;;;;;;0.02;97.53;100998.97;5025977;28;20033;-69
2021/12/03 03:54:27;;;;;;;72.13;24.65;;;;;;;0.03;97.57;100996.22;5021030;28;20025;-68
2021/12/03 03:56:52;;;;;;;77.22;26.42;;;;;;;0.05;97.39;100985.47;5020392;28;20381;-69
2021/12/03 03:59:18;;;;;;;69.15;25.50;;;;;;;0.06;97.66;100990.81;5014480;28;20072;-72
2021/12/03 04:01:48;;;;;;;80.93;27.63;;;;;;;0.08;97.43;100985.41;5028259;28;20083;-74
2021/12/03 04:04:14;;;;;;;79.32;26.38;;;;;;;0.07;97.74;100989.00;5013951;28;20457;-72
2021/12/03 04:06:40;;;;;;;91.63;27.55;;;;;;;0.08;97.72;100978.25;5013229;28;20029;-75
2021/12/03 04:09:06;;;;;;;86.75;27.20;;;;;;;0.09;97.65;100973.78;5024103;28;20108;-76
2021/12/03 04:11:31;;;;;;;88.43;26.67;;;;;;;0.12;97.63;100974.59;5027302;28;20022;-75
2021/12/03 04:13:57;;;;;;;86.32;29.30;;;;;;;0.12;97.65;100969.25;5020463;28;20040;-68
2021/12/03 04:16:22;;;;;;;79.35;28.13;;;;;;;0.15;97.61;100966.50;5023617;28;20362;-68
2021/12/03 04:18:47;;;;;;;81.30;27.58;;;;;;;0.17;97.53;100959.28;5026738;28;20381;-68
2021/12/03 04:21:14;;;;;;;80.43;28.40;;;;;;;0.19;97.75;100965.50;5019513;28;20030;-72
2021/12/03 04:23:39;;;;;;;81.28;27.83;;;;;;;0.23;97.25;100971.59;5011420;28;20552;-75
2021/12/03 04:26:05;;;;;;;71.68;24.90;;;;;;;0.24;97.75;100979.63;5014174;28;20109;-76
2021/12/03 04:28:32;;;;;;;74.53;25.13;;;;;;;0.25;97.72;100967.09;5026277;28;20509;-69
2021/12/03 04:30:58;;;;;;;76.75;26.52;;;;;;;0.29;97.57;100973.25;5022399;28;20018;-71
2021/12/03 04:33:24;;;;;;;72.70;26.20;;;;;;;0.27;97.64;100962.56;5016263;28;20035;-69
2021/12/03 04:35:49;;;;;;;82.47;28.80;;;;;;;0.30;97.18;100965.19;5027212;28;20033;-72
2021/12/03 04:38:15;;;;;;;73.20;25.45;;;;;;;0.32;97.58;100970.47;5026123;28;20029;-68
2021/12/03 04:40:41;;;;;;;66.60;23.65;;;;;;;0.34;97.65;100965.97;5017809;28;20476;-70
2021/12/03 04:43:07;;;;;;;63.45;25.67;;;;;;;0.35;97.36;100973.06;5027118;28;20021;-76
2021/12/03 04:45:33;;;;;;;66.63;23.60;;;;;;;0.39;97.38;100977.44;5017771;28;20468;-72
2021/12/03 04:48:00;;;;;;;59.65;24.23;;;;;;;0.40;97.52;100979.16;5022749;28;20037;-68
2021/12/03 04:50:29;;;;;;;69.85;25.35;;;;;;;0.37;97.42;100971.22;5025324;28;20036;-69
2021/12/03 04:52:54;;;;;;;62.50;22.45;;;;;;;0.40;97.45;100989.88;5025969;28;20037;-70
2021/12/03 04:55:21;;;;;;;54.90;22.70;;;;;;;0.40;97.47;100972.03;5026220;28;20031;-70
2021/12/03 04:57:49;;;;;;;63.05;24.30;;;;;;;0.41;97.31;100979.13;5025779;28;20160;-75
2021/12/03 05:00:18;;;;;;;63.03;24.35;;;;;;;0.41;97.34;100962.19;5010006;28;20048;-73
2021/12/03 05:02:44;;;;;;;58.35;22.17;;;;;;;0.38;97.11;100957.81;5023154;28;20021;-70
2021/12/03 05:05:10;;;;;;;57.13;23.30;;;;;;;0.38;97.23;100960.50;5022768;28;20037;-77
2021/12/03 05:10:05;;;;;;;64.63;25.08;;;;;;;0.39;97.23;100953.34;5027585;28;20419;-72
2021/12/03 05:12:30;;;;;;;63.45;24.80;;;;;;;0.39;97.26;100943.50;5022818;28;20033;-69
2021/12/03 05:14:56;;;;;;;56.38;22.23;;;;;;;0.40;97.04;100950.59;5018100;28;20393;-76
2021/12/03 05:17:21;;;;;;;49.45;21.05;;;;;;;0.39;97.18;100945.31;5022554;28;20026;-73
2021/12/03 05:19:47;;;;;;;51.25;21.80;;;;;;;0.40;97.25;100939.91;5022810;28;20376;-73
2021/12/03 05:22:13;;;;;;;49.17;20.70;;;;;;;0.40;nan;100939.03;5022541;28;20025;-76
2021/12/03 05:24:40;;;;;;;48.60;20.70;;;;;;;0.40;97.17;100936.34;5025916;28;20529;-70
2021/12/03 05:27:05;;;;;;;39.40;17.27;;;;;;;0.42;97.03;100939.84;5016208;28;20385;-72
2021/12/03 05:29:31;;;;;;;39.10;19.23;;;;;;;0.40;97.11;100926.53;5026077;28;20104;-70
2021/12/03 05:31:56;;;;;;;41.75;17.13;;;;;;;0.40;96.88;100939.03;5025035;28;20358;-69
2021/12/03 05:34:22;;;;;;;37.25;17.27;;;;;;;0.39;96.96;100945.31;5025542;28;20472;-75
2021/12/03 05:36:47;;;;;;;41.80;16.60;;;;;;;0.38;97.10;100946.25;5024700;28;20030;-75
2021/12/03 05:39:13;;;;;;;34.22;15.98;;;;;;;0.37;96.96;100947.13;5023905;28;20057;-68
2021/12/03 05:41:39;;;;;;;33.72;16.13;;;;;;;0.40;97.01;100949.75;5015298;28;20526;-75
2021/12/03 05:44:05;;;;;;;31.38;14.55;;;;;;;0.40;96.81;100960.44;5021863;28;20057;-69
2021/12/03 05:46:31;;;;;;;35.78;14.40;;;;;;;0.39;96.88;100962.25;5021599;28;20061;-69
2021/12/03 05:48:57;;;;;;;29.42;14.82;;;;;;;0.37;96.95;100950.69;5023571;28;20057;-71
2021/12/03 05:51:25;;;;;;;28.63;13.07;;;;;;;0.39;96.87;100950.66;5021919;28;20432;-75
2021/12/03 05:53:51;;;;;;;32.53;13.68;;;;;;;0.37;96.76;100949.81;5015284;28;20083;-71
2021/12/03 05:56:16;;;;;;;28.40;11.95;;;;;;;0.38;96.87;100962.28;5027780;28;20025;-69
2021/12/03 05:58:41;;;;;;;35.53;11.88;;;;;;;0.36;96.69;100953.41;5023781;28;20374;-69
2021/12/03 06:01:06;;;;;;;23.15;11.98;;;;;;;0.37;96.82;100952.50;5025862;28;20026;-73
2021/12/03 06:03:32;;;;;;;28.20;13.27;;;;;;;0.39;97.00;100950.66;5027652;28;20028;-72
2021/12/03 06:05:57;;;;;;;23.48;11.60;;;;;;;0.39;96.99;100939.97;5018069;28;20531;-72
2021/12/03 06:08:22;;;;;;;31.00;12.45;;;;;;;0.41;96.78;100949.69;5026391;28;20021;-67
2021/12/03 06:10:48;;;;;;;25.90;11.38;;;;;;;0.42;96.74;100947.88;5014891;28;20451;-71
2021/12/03 06:13:13;;;;;;;27.05;12.48;;;;;;;0.43;96.82;100946.97;5017679;28;20022;-69
2021/12/03 06:15:39;;;;;;;31.90;10.43;;;;;;;0.44;96.75;100944.25;5026101;28;20068;-70
2021/12/03 06:18:04;;;;;;;24.25;10.27;;;;;;;0.46;96.57;100944.19;5016081;28;20022;-69
2021/12/03 06:20:30;;;;;;;26.98;10.77;;;;;;;0.48;96.24;100937.03;5017691;28;20029;-69
2021/12/03 06:22:55;;;;;;;24.63;9.77;;;;;;;0.48;96.25;100937.88;5028171;28;20033;-67
2021/12/03 06:25:21;;;;;;;19.65;9.15;;;;;;;0.49;96.41;100938.75;5027844;28;20017;-75
2021/12/03 06:27:47;;;;;;;22.10;9.30;;;;;;;0.49;96.18;100936.97;5025871;28;20048;-70
2021/12/03 06:30:17;;;;;;;23.77;9.23;;;;;;;0.51;95.86;100936.91;5020590;28;20021;-74
2021/12/03 06:32:42;;;;;;;23.30;9.25;;;;;;;0.49;95.78;100930.72;5020793;28;20025;-75
2021/12/03 06:35:10;;;;;;;26.98;9.57;;;;;;;0.53;95.54;100936.88;5029506;28;20535;-73
2021/12/03 06:37:36;;;;;;;22.15;9.25;;;;;;;0.51;95.18;100926.19;5028181;28;20054;-72
2021/12/03 06:40:03;;;;;;;26.58;8.57;;;;;;;0.49;95.23;100928.94;5021474;28;20049;-68
2021/12/03 06:42:29;;;;;;;17.30;7.78;;;;;;;0.49;95.21;100928.06;5008334;28;20056;-72
2021/12/03 06:44:54;;;;;;;19.60;7.43;;;;;;;0.49;95.05;100933.41;5005922;28;20030;-68
2021/12/03 06:47:19;;;;;;;23.05;7.85;;;;;;;0.47;95.10;100940.63;5020979;28;20037;-71
2021/12/03 06:49:45;;;;;;;19.52;8.02;;;;;;;0.47;94.58;100932.59;5021557;28;20072;-69
2021/12/03 06:52:14;;;;;;;25.13;7.93;;;;;;;0.45;94.80;100937.09;5019684;28;20032;-70
2021/12/03 06:54:41;;;;;;;15.82;6.78;;;;;;;0.44;94.85;100930.88;5023608;28;20025;-74
2021/12/03 06:57:07;;;;;;;19.83;8.38;;;;;;;0.43;94.37;100937.16;5019044;28;20026;-68
2021/12/03 06:59:32;;;;;;;22.65;8.52;;;;;;;0.42;94.46;100942.53;5012662;28;20028;-72
2021/12/03 07:01:58;;;;;;;18.52;7.88;;;;;;;0.42;94.14;100942.53;5023467;28;20033;-72
2021/12/03 07:04:24;;;;;;;21.58;6.97;;;;;;;0.41;94.10;100949.69;5027909;28;20128;-70
2021/12/03 07:06:49;;;;;;;16.00;7.30;;;;;;;0.42;93.62;100939.84;5022568;28;20044;-71
2021/12/03 07:09:16;;;;;;;13.27;6.78;;;;;;;0.39;93.88;100939.97;5029574;28;20059;-75
2021/12/03 07:11:41;;;;;;;18.77;6.88;;;;;;;0.38;93.85;100928.38;5028787;28;20029;-69
2021/12/03 07:14:07;;;;;;;20.17;7.07;;;;;;;0.39;93.84;100931.94;5027580;28;20041;-72
2021/12/03 07:16:32;;;;;;;19.02;7.60;;;;;;;0.38;93.73;100930.19;5012244;28;20500;-69
2021/12/03 07:18:58;;;;;;;16.20;6.20;;;;;;;0.39;93.63;100931.94;5023756;28;20022;-74
2021/12/03 07:21:24;;;;;;;24.35;7.88;;;;;;;0.38;94.08;100924.84;5023087;28;20036;-69
2021/12/03 07:23:50;;;;;;;18.70;6.72;;;;;;;0.38;93.65;100916.81;5019814;28;20297;-72
2021/12/03 07:26:17;;;;;;;20.10;7.03;;;;;;;0.38;93.56;100916.81;5027384;28;20036;-68
2021/12/03 07:28:43;;;;;;;15.55;6.75;;;;;;;0.38;93.29;100906.09;5017435;28;20025;-69
2021/12/03 07:31:09;;;;;;;24.40;7.85;;;;;;;0.41;93.53;100906.88;5027350;28;20116;-68
2021/12/03 07:33:34;;;;;;;15.70;6.88;;;;;;;0.39;93.54;100908.72;5028442;28;20100;-72
2021/12/03 07:35:59;;;;;;;17.92;6.28;;;;;;;0.38;93.45;100906.97;5020003;28;20029;-68
2021/12/03 07:38:25;;;;;;;11.88;6.20;;;;;;;0.41;93.16;100906.00;5028246;28;20069;-69
2021/12/03 07:40:50;;;;;;;16.90;6.53;;;;;;;0.40;93.01;100913.16;5021269;28;20053;-73
2021/12/03 07:43:17;;;;;;;13.80;6.50;;;;;;;0.42;92.82;100914.00;5025740;28;20319;-68
2021/12/03 07:45:47;;;;;;;19.55;6.80;;;;;;;0.44;93.28;100912.13;5019847;28;20488;-74
2021/12/03 07:48:12;;;;;;;14.27;5.97;;;;;;;0.46;93.24;100914.75;5013883;28;20049;-74
2021/12/03 07:50:39;;;;;;;20.08;6.35;;;;;;;0.46;93.43;100915.63;5020499;28;21144;-73
2021/12/03 07:53:06;;;;;;;16.23;6.28;;;;;;;0.47;93.41;100906.69;5015164;28;20021;-68
2021/12/03 07:55:32;;;;;;;25.00;6.03;;;;;;;0.49;93.14;100906.66;5028361;28;20385;-74
2021/12/03 07:57:58;;;;;;;14.05;5.72;;;;;;;0.52;93.22;100917.28;5014616;28;20034;-68
2021/12/03 08:00:23;;;;;;;17.05;5.65;;;;;;;0.56;93.17;100918.94;5009759;28;20239;-69
2021/12/03 08:02:48;;;;;;;19.63;6.03;;;;;;;0.55;93.05;100903.78;5022577;28;20438;-71
2021/12/03 08:05:14;;;;;;;14.95;5.35;;;;;;;0.60;93.18;100909.88;5016419;28;20490;-69
2021/12/03 08:07:40;;;;;;;18.23;5.70;;;;;;;0.59;93.17;100909.91;5025285;28;20469;-67
2021/12/03 08:10:06;;;;;;;18.95;5.95;;;;;;;0.65;92.96;100899.91;5026880;28;20033;-68
2021/12/03 08:12:32;;;;;;;22.45;5.70;;;;;;;0.68;92.79;100909.63;5027440;28;20032;-69
2021/12/03 08:14:57;;;;;;;24.08;6.63;;;;;;;0.68;93.10;100906.97;5026207;28;20381;-72
2021/12/03 08:17:23;;;;;;;22.80;4.65;;;;;;;0.69;93.15;100898.88;5026910;28;20482;-68
2021/12/03 08:19:48;;;;;;;25.15;5.45;;;;;;;0.72;93.15;100904.16;5026478;28;20113;-71
2021/12/03 08:22:13;;;;;;;18.90;5.13;;;;;;;0.76;92.74;100900.44;5024895;28;20509;-74
2021/12/03 08:24:38;;;;;;;25.48;5.97;;;;;;;0.77;92.89;100904.00;5027534;28;20040;-70
2021/12/03 08:27:04;;;;;;;19.02;5.55;;;;;;;0.81;92.60;100899.44;5026287;28;20052;-73
2021/12/03 08:29:29;;;;;;;17.95;5.15;;;;;;;0.85;92.60;100912.69;5022825;28;20412;-73
2021/12/03 08:31:55;;;;;;;13.40;4.50;;;;;;;0.86;92.23;100902.84;5007505;28;20033;-70
2021/12/03 08:34:20;;;;;;;33.25;5.78;;;;;;;0.91;92.32;100901.75;5008981;28;20037;-70
2021/12/03 08:36:46;;;;;;;15.82;4.78;;;;;;;0.91;92.18;100899.09;5026058;28;20029;-69
2021/12/03 08:39:11;;;;;;;16.40;5.10;;;;;;;0.97;92.55;100898.00;5023078;28;20502;-76
2021/12/03 08:41:36;;;;;;;20.30;4.57;;;;;;;1.01;92.41;100902.34;5024633;28;20432;-68
2021/12/03 08:44:03;;;;;;;21.15;5.15;;;;;;;1.05;92.68;100905.81;5008108;28;20473;-70
2021/12/03 08:46:36;;;;;;;19.75;5.68;;;;;;;1.04;92.30;100904.94;5021251;28;20103;-68
2021/12/03 08:49:16;;;;;;;22.48;4.38;;;;;;;1.06;92.43;100907.56;5019182;28;20381;-68
2021/12/03 08:56:57;;;;;;;21.15;5.25;;;;;;;1.14;91.93;100886.75;5018096;28;20050;-69
2021/12/03 08:59:23;;;;;;;14.30;4.47;;;;;;;1.14;92.26;100887.63;5024488;28;20025;-69
2021/12/03 09:01:48;;;;;;;17.20;3.92;;;;;;;1.18;92.00;100881.25;5008625;28;20699;-71
2021/12/03 09:04:14;;;;;;;15.90;4.15;;;;;;;1.21;91.15;100883.84;5014886;28;20113;-74
2021/12/03 09:06:40;;;;;;;15.85;4.70;;;;;;;1.24;91.94;100883.72;5021602;28;20540;-74
2021/12/03 09:09:08;;;;;;;20.60;6.05;;;;;;;1.28;91.79;100888.03;5021550;28;20024;-69
2021/12/03 09:11:37;;;;;;;19.63;4.53;;;;;;;1.34;91.63;100896.81;5022604;28;20041;-72
2021/12/03 09:14:12;;;;;;;19.42;5.22;;;;;;;1.36;92.08;100885.13;5014378;28;20033;-74
2021/12/03 09:16:37;;;;;;;14.30;4.13;;;;;;;1.41;91.61;100885.84;5022668;28;20025;-70
2021/12/03 09:19:06;;;;;;;17.80;4.32;;;;;;;1.44;91.48;100879.47;5025229;28;20026;-73
2021/12/03 09:21:33;;;;;;;14.77;4.65;;;;;;;1.48;91.72;100870.41;5025138;28;20029;-70
2021/12/03 09:24:09;;;;;;;12.55;4.53;;;;;;;1.51;91.77;100863.13;5025813;28;20033;-72
2021/12/03 09:26:38;;;;;;;18.90;4.72;;;;;;;1.56;92.12;100854.94;5024615;28;20040;-72
2021/12/03 09:29:06;;;;;;;11.55;4.68;;;;;;;1.62;91.36;100864.56;5027273;28;20476;-69
2021/12/03 09:31:36;;;;;;;12.02;4.20;;;;;;;1.65;91.27;100862.66;5010568;28;20579;-68
2021/12/03 09:34:07;;;;;;;20.45;5.95;;;;;;;1.69;91.77;100868.78;5019269;28;20025;-69
2021/12/03 09:36:32;;;;;;;19.23;5.10;;;;;;;1.74;91.30;100867.69;5018434;28;20497;-72
2021/12/03 09:38:58;;;;;;;23.25;5.28;;;;;;;1.79;90.91;100870.22;5029281;28;20077;-73
2021/12/03 09:41:23;;;;;;;17.17;4.68;;;;;;;1.83;90.88;100865.63;5023943;28;20060;-71
2021/12/03 09:43:53;;;;;;;14.73;4.72;;;;;;;1.86;91.44;100868.16;5030013;28;20029;-72
2021/12/03 09:46:23;;;;;;;19.92;6.03;;;;;;;1.89;91.10;100854.66;5027767;28;20033;-71
2021/12/03 09:51:35;;;;;;;21.42;4.10;;;;;;;1.96;91.16;100848.16;5029678;28;20029;-70
2021/12/03 09:57:11;;;;;;;11.00;4.45;;;;;;;1.99;91.11;100824.75;5007869;28;20040;-70
2021/12/03 10:02:25;;;;;;;20.27;4.65;;;;;;;2.01;91.50;100822.91;5016409;28;20065;-70
2021/12/03 10:11:31;;;;;;;13.35;3.47;;;;;;;2.01;91.14;100803.25;5016038;28;20424;-75
2021/12/03 10:18:58;;;;;;;18.15;5.00;;;;;;;2.25;91.28;100798.75;5029634;28;20128;-71
2021/12/03 10:27:48;;;;;;;17.98;4.50;;;;;;;2.45;90.45;100795.25;5016052;28;20037;-71
2021/12/03 10:38:46;;;;;;;16.63;5.13;;;;;;;2.57;89.95;100761.69;5028983;28;20056;-73
2021/12/03 10:48:53;;;;;;;17.88;5.05;;;;;;;2.65;90.14;100730.88;5029025;28;20512;-76
2021/12/03 10:57:10;;;;;;;13.52;4.50;;;;;;;2.77;89.96;100716.94;5027944;28;20417;-73
2021/12/03 10:59:46;;;;;;;13.07;5.30;;;;;;;2.85;90.32;100697.81;5026686;28;20044;-75
2021/12/03 11:16:10;;;;;;;15.45;5.18;;;;;;;3.11;89.18;100695.78;5027677;28;20840;-70
2021/12/03 11:19:03;;;;;;;16.15;5.63;;;;;;;3.13;88.41;100692.09;5029124;28;20054;-73
2021/12/03 11:39:39;;;;;;;15.98;4.93;;;;;;;3.40;87.06;100635.31;5028638;28;20037;-71
2021/12/03 11:56:52;;;;;;;12.25;4.93;;;;;;;3.66;86.02;100620.66;5026955;28;20056;-71
2021/12/03 12:57:33;;;;;;;8.25;3.25;;;;;;;3.79;82.91;100504.31;5022939;28;20103;-71
2021/12/03 13:00:18;;;;;;;8.45;2.95;;;;;;;3.81;82.85;100510.47;5026871;28;20033;-76
2021/12/03 13:18:51;;;;;;;4.40;2.83;;;;;;;3.78;82.10;100477.50;5026214;28;20037;-71
2021/12/03 13:44:41;;;;;;;9.35;2.72;;;;;;;3.65;84.07;100461.09;5025370;28;20033;-73
2021/12/03 13:57:13;;;;;;;8.88;2.53;;;;;;;3.49;84.74;100435.91;5029126;28;20614;-72
2021/12/03 14:34:35;;;;;;;5.22;2.83;;;;;;;3.29;87.80;100424.31;5007297;28;20034;-71
2021/12/03 14:38:48;;;;;;;3.92;2.92;;;;;;;3.27;87.66;100423.53;5017610;28;20544;-71
2021/12/03 14:41:41;;;;;;;7.65;3.13;;;;;;;3.28;87.73;100417.22;5015693;28;20022;-75
2021/12/03 14:47:08;;;;;;;7.13;2.95;;;;;;;3.25;88.22;100422.72;5014016;28;19913;-71
2021/12/03 14:52:19;;;;;;;6.07;3.22;;;;;;;3.23;88.68;100432.69;5027285;28;20045;-73
2021/12/03 14:57:27;;;;;;;7.40;2.97;;;;;;;3.24;88.63;100438.94;5028854;28;20088;-74
2021/12/03 15:00:10;;;;;;;8.15;3.15;;;;;;;3.22;88.57;100430.09;5025643;28;20087;-70
2021/12/03 15:03:03;;;;;;;12.73;2.90;;;;;;;3.23;88.83;100434.53;5027378;28;20067;-73
2021/12/03 15:19:58;;;;;;;4.32;3.42;;;;;;;3.20;90.05;100426.59;5025754;28;20413;-72
2021/12/03 15:32:47;;;;;;;7.15;3.22;;;;;;;3.17;91.52;100405.22;5025567;28;20043;-70
2021/12/03 15:40:38;;;;;;;5.78;3.20;;;;;;;3.14;92.21;100408.09;5010027;28;20038;-75
2021/12/03 16:04:36;;;;;;;5.68;4.03;;;;;;;3.05;93.67;100377.16;5023871;28;20042;-70
2021/12/03 16:07:12;;;;;;;5.22;3.92;;;;;;;3.05;93.83;100372.66;5012287;28;20029;-73
2021/12/03 16:15:05;;;;;;;4.57;3.70;;;;;;;3.01;94.15;100363.00;5024897;28;20393;-75
2021/12/03 16:17:59;;;;;;;4.90;3.28;;;;;;;3.03;94.17;100357.53;5026692;28;20128;-74
2021/12/03 16:26:21;;;;;;;4.15;3.67;;;;;;;3.02;94.28;100362.03;5027664;28;20464;-74
2021/12/03 16:51:00;;;;;;;6.80;4.07;;;;;;;3.01;94.51;100340.63;5020440;28;20473;-73
2021/12/03 16:53:30;;;;;;;4.20;3.67;;;;;;;3.01;95.02;100335.25;5023217;28;20029;-71
2021/12/03 16:56:07;;;;;;;4.90;3.63;;;;;;;3.01;94.78;100332.56;5015867;28;20537;-72
2021/12/03 16:58:34;;;;;;;7.25;3.95;;;;;;;3.02;94.82;100332.47;5011149;28;20030;-73